createdAt,value
2022-08-07T00:00:25.449Z,97193.91
2022-08-07T00:02:53.829Z,97189.97
2022-08-07T00:05:23.800Z,97187.59
2022-08-07T00:07:59.865Z,97195.53
2022-08-07T00:10:30.703Z,97186.13
2022-08-07T00:13:03.215Z,97189.06
2022-08-07T00:15:50.835Z,97182.47
2022-08-07T00:18:24.074Z,97189.78
2022-08-07T00:20:54.039Z,97188.13
2022-08-07T00:23:23.607Z,97184.88
2022-08-07T00:26:00.262Z,97179.44
2022-08-07T00:28:33.319Z,97184.06
2022-08-07T00:31:06.206Z,97184.22
2022-08-07T00:33:41.515Z,97181.41
2022-08-07T00:36:10.583Z,97193.63
2022-08-07T00:38:41.473Z,97198.00
2022-08-07T00:41:14.747Z,97193.69
2022-08-07T00:43:59.606Z,97197.72
2022-08-07T00:46:32.902Z,97200.69
2022-08-07T00:49:03.260Z,97193.09
2022-08-07T00:51:58.378Z,97184.78
2022-08-07T00:54:22.348Z,97186.50
2022-08-07T00:56:51.495Z,97186.75
2022-08-07T00:59:35.872Z,97184.38
2022-08-07T01:02:08.844Z,97188.31
2022-08-07T01:04:43.359Z,97181.31
2022-08-07T01:07:12.925Z,97178.22
2022-08-07T01:10:07.126Z,97169.53
2022-08-07T01:12:31.346Z,97169.94
2022-08-07T01:15:03.721Z,97172.50
2022-08-07T01:17:32.996Z,97169.38
2022-08-07T01:20:07.918Z,97171.34
2022-08-07T01:22:46.881Z,97160.97
2022-08-07T01:25:40.326Z,97165.88
2022-08-07T01:28:15.730Z,97169.13
2022-08-07T01:30:45.697Z,97167.28
2022-08-07T01:33:16.620Z,97156.88
2022-08-07T01:35:53.360Z,97167.28
2022-08-07T01:38:29.082Z,97162.22
2022-08-07T01:41:03.715Z,97164.16
2022-08-07T01:43:38.192Z,97159.44
2022-08-07T01:46:12.337Z,97167.53
2022-08-07T01:48:46.602Z,97164.03
2022-08-07T01:52:01.176Z,97162.63
2022-08-07T01:54:36.304Z,97159.56
2022-08-07T01:57:08.986Z,97156.59
2022-08-07T01:59:55.925Z,97156.47
2022-08-07T02:02:33.027Z,97158.00
2022-08-07T02:05:43.373Z,97157.72
2022-08-07T02:08:20.369Z,97152.97
2022-08-07T02:10:58.121Z,97157.59
2022-08-07T02:13:56.892Z,97146.94
2022-08-07T02:16:28.799Z,97150.00
2022-08-07T02:19:02.922Z,97149.03
2022-08-07T02:21:56.554Z,97147.63
2022-08-07T02:24:29.362Z,97140.72
2022-08-07T02:27:01.643Z,97139.06
2022-08-07T02:29:32.565Z,97139.34
2022-08-07T02:32:05.427Z,97128.69
2022-08-07T02:34:35.631Z,97127.56
2022-08-07T02:37:19.948Z,97126.16
2022-08-07T02:40:12.059Z,97137.75
2022-08-07T02:42:39.994Z,97124.72
2022-08-07T02:45:59.272Z,97134.41
2022-08-07T02:48:01.716Z,97130.34
2022-08-07T02:50:31.232Z,97134.38
2022-08-07T02:53:06.166Z,97130.63
2022-08-07T02:56:04.105Z,97134.06
2022-08-07T02:58:33.245Z,97128.28
2022-08-07T03:01:05.054Z,97126.31
2022-08-07T03:03:50.153Z,97130.09
2022-08-07T03:06:25.495Z,97136.13
2022-08-07T03:08:55.295Z,97141.44
2022-08-07T03:11:28.079Z,97125.78
2022-08-07T03:14:01.823Z,97125.91
2022-08-07T03:16:31.106Z,97130.66
2022-08-07T03:19:00.311Z,97135.28
2022-08-07T03:21:32.811Z,97142.13
2022-08-07T03:24:19.629Z,97132.19
2022-08-07T03:26:58.624Z,97128.41
2022-08-07T03:29:33.939Z,97130.88
2022-08-07T03:32:12.982Z,97133.53
2022-08-07T03:35:01.057Z,97131.16
2022-08-07T03:37:37.371Z,97140.25
2022-08-07T03:40:16.854Z,97138.94
2022-08-07T03:42:45.863Z,97135.56
2022-08-07T03:45:29.987Z,97136.56
2022-08-07T03:48:04.895Z,97127.59
2022-08-07T03:50:39.178Z,97125.38
2022-08-07T03:53:12.163Z,97128.47
2022-08-07T03:55:57.656Z,97126.19
2022-08-07T03:59:10.114Z,97128.47
2022-08-07T04:01:25.557Z,97124.66
2022-08-07T04:03:55.522Z,97125.59
2022-08-07T04:06:38.449Z,97119.19
2022-08-07T04:09:15.663Z,97133.84
2022-08-07T04:12:21.231Z,97131.75
2022-08-07T04:14:43.532Z,97144.38
2022-08-07T04:18:56.817Z,97139.56
2022-08-07T04:20:10.099Z,97142.50
2022-08-07T04:22:40.996Z,97150.22
2022-08-07T04:25:23.827Z,97144.06
2022-08-07T04:28:00.301Z,97149.94
2022-08-07T04:30:43.878Z,97159.06
2022-08-07T04:33:25.420Z,97156.41
2022-08-07T04:35:54.817Z,97151.81
2022-08-07T04:38:27.713Z,97151.41
2022-08-07T04:40:58.102Z,97148.47
2022-08-07T04:44:12.023Z,97161.25
2022-08-07T04:46:34.833Z,97162.78
2022-08-07T04:49:25.477Z,97156.63
2022-08-07T04:52:04.119Z,97154.53
2022-08-07T04:54:37.147Z,97160.31
2022-08-07T04:58:09.599Z,97156.69
2022-08-07T05:00:17.276Z,97150.53
2022-08-07T05:02:56.933Z,97160.19
2022-08-07T05:05:54.144Z,97167.50
2022-08-07T05:09:00.006Z,97162.00
2022-08-07T05:11:24.315Z,97163.16
2022-08-07T05:14:56.078Z,97157.13
2022-08-07T05:16:54.014Z,97166.81
2022-08-07T05:19:25.650Z,97168.13
2022-08-07T05:22:05.727Z,97171.22
2022-08-07T05:24:40.870Z,97163.69
2022-08-07T05:27:18.454Z,97164.97
2022-08-07T05:30:00.802Z,97173.94
2022-08-07T05:32:29.755Z,97172.16
2022-08-07T05:34:59.085Z,97177.06
2022-08-07T05:37:28.697Z,97179.63
2022-08-07T05:40:17.405Z,97189.56
2022-08-07T05:42:55.948Z,97185.53
2022-08-07T05:45:46.499Z,97185.09
2022-08-07T05:48:16.606Z,97186.94
2022-08-07T05:50:47.138Z,97193.63
2022-08-07T05:54:09.295Z,97189.28
2022-08-07T05:56:12.393Z,97194.34
2022-08-07T05:58:52.446Z,97196.75
2022-08-07T06:01:27.343Z,97200.50
2022-08-07T06:04:05.506Z,97195.03
2022-08-07T06:06:38.404Z,97198.78
2022-08-07T06:09:18.685Z,97192.41
2022-08-07T06:11:49.701Z,97195.91
2022-08-07T06:14:28.498Z,97194.19
2022-08-07T06:16:59.888Z,97195.28
2022-08-07T06:19:58.038Z,97194.94
2022-08-07T06:22:27.336Z,97190.84
2022-08-07T06:25:10.176Z,97193.75
2022-08-07T06:28:00.702Z,97190.09
2022-08-07T06:30:35.648Z,97194.94
2022-08-07T06:33:16.116Z,97193.34
2022-08-07T06:36:06.786Z,97195.25
2022-08-07T06:38:38.010Z,97186.69
2022-08-07T06:41:12.935Z,97189.97
2022-08-07T06:43:46.602Z,97181.41
2022-08-07T06:46:31.324Z,97191.41
2022-08-07T06:49:04.576Z,97190.84
2022-08-07T06:51:43.441Z,97185.06
2022-08-07T06:55:32.699Z,97192.03
2022-08-07T06:57:13.511Z,97189.38
2022-08-07T07:00:13.436Z,97184.78
2022-08-07T07:02:48.326Z,97194.38
2022-08-07T07:06:02.481Z,97183.25
2022-08-07T07:08:07.213Z,97185.25
2022-08-07T07:10:47.320Z,97183.00
2022-08-07T07:13:55.536Z,97190.06
2022-08-07T07:16:12.703Z,97189.13
2022-08-07T07:18:51.212Z,97185.28
2022-08-07T07:21:27.226Z,97189.00
2022-08-07T07:24:12.602Z,97193.19
2022-08-07T07:26:49.594Z,97184.84
2022-08-07T07:29:39.049Z,97187.88
2022-08-07T07:32:10.777Z,97183.53
2022-08-07T07:34:44.871Z,97173.97
2022-08-07T07:37:45.115Z,97176.03
2022-08-07T07:40:14.787Z,97170.34
2022-08-07T07:42:50.869Z,97172.19
2022-08-07T07:46:37.921Z,97177.22
2022-08-07T07:48:35.246Z,97176.06
2022-08-07T07:51:08.071Z,97170.00
2022-08-07T07:53:51.238Z,97172.56
2022-08-07T07:56:30.435Z,97165.84
2022-08-07T07:59:01.512Z,97165.84
2022-08-07T08:02:02.576Z,97167.19
2022-08-07T08:04:25.946Z,97171.38
2022-08-07T08:06:57.101Z,97175.91
2022-08-07T08:09:32.884Z,97162.97
2022-08-07T08:12:50.087Z,97166.19
2022-08-07T08:15:10.654Z,97166.66
2022-08-07T08:17:58.294Z,97171.31
2022-08-07T08:20:31.804Z,97160.44
2022-08-07T08:23:18.878Z,97159.22
2022-08-07T08:26:23.494Z,97163.75
2022-08-07T08:28:57.068Z,97166.91
2022-08-07T08:31:59.050Z,97154.50
2022-08-07T08:34:26.787Z,97149.25
2022-08-07T08:36:58.446Z,97151.28
2022-08-07T08:39:39.587Z,97153.59
2022-08-07T08:42:25.791Z,97154.94
2022-08-07T08:45:04.866Z,97154.25
2022-08-07T08:47:52.053Z,97155.75
2022-08-07T08:50:34.760Z,97144.25
2022-08-07T08:53:19.165Z,97147.44
2022-08-07T08:55:54.730Z,97149.72
2022-08-07T08:58:35.119Z,97147.53
2022-08-07T09:01:15.275Z,97143.63
2022-08-07T09:03:55.269Z,97143.56
2022-08-07T09:06:42.685Z,97141.22
2022-08-07T09:09:30.028Z,97151.34
2022-08-07T09:12:31.361Z,97147.13
2022-08-07T09:16:22.815Z,97149.88
2022-08-07T09:18:24.316Z,97138.19
2022-08-07T09:21:33.921Z,97146.16
2022-08-07T09:24:28.433Z,97151.38
2022-08-07T09:27:22.402Z,97153.22
2022-08-07T09:30:04.470Z,97152.34
2022-08-07T09:32:56.807Z,97150.25
2022-08-07T09:36:03.159Z,97137.25
2022-08-07T09:38:32.402Z,97132.97
2022-08-07T09:41:15.512Z,97134.75
2022-08-07T09:44:06.115Z,97131.91
2022-08-07T09:47:50.519Z,97141.97
2022-08-07T09:50:03.008Z,97129.13
2022-08-07T09:52:51.544Z,97120.50
2022-08-07T09:55:29.417Z,97125.94
2022-08-07T09:58:43.434Z,97137.72
2022-08-07T10:01:51.326Z,97135.69
2022-08-07T10:04:57.158Z,97117.22
2022-08-07T10:07:52.886Z,97113.50
2022-08-07T10:11:07.716Z,97122.06
2022-08-07T10:14:00.199Z,97120.47
2022-08-07T10:17:01.787Z,97115.03
2022-08-07T10:19:47.589Z,97107.00
2022-08-07T10:22:46.083Z,97100.53
2022-08-07T10:25:43.210Z,97096.72
2022-08-07T10:28:39.143Z,97094.13
2022-08-07T10:31:23.079Z,97097.38
2022-08-07T10:34:15.506Z,97086.63
2022-08-07T10:37:03.954Z,97093.88
2022-08-07T10:39:57.638Z,97086.53
2022-08-07T10:42:39.700Z,97087.25
2022-08-07T10:45:19.363Z,97085.72
2022-08-07T10:48:17.508Z,97097.88
2022-08-07T10:50:51.730Z,97092.84
2022-08-07T10:53:44.368Z,97082.66
2022-08-07T10:56:30.807Z,97086.47
2022-08-07T10:59:10.861Z,97084.22
2022-08-07T11:01:51.563Z,97088.41
2022-08-07T11:04:53.240Z,97082.53
2022-08-07T11:07:59.106Z,97071.09
2022-08-07T11:10:35.252Z,97063.31
2022-08-07T11:14:42.090Z,97057.16
2022-08-07T11:16:07.444Z,97056.50
2022-08-07T11:18:41.371Z,97059.56
2022-08-07T11:21:16.963Z,97056.56
2022-08-07T11:23:55.441Z,97046.59
2022-08-07T11:26:32.474Z,97054.97
2022-08-07T11:29:13.240Z,97047.88
2022-08-07T11:32:02.242Z,97041.28
2022-08-07T11:34:37.748Z,97048.22
2022-08-07T11:37:19.568Z,97048.22
2022-08-07T11:40:04.493Z,97045.00
2022-08-07T11:42:47.726Z,97041.81
2022-08-07T11:45:36.471Z,97044.41
2022-08-07T11:48:32.771Z,97039.53
2022-08-07T11:51:40.815Z,97034.00
2022-08-07T11:54:25.683Z,97034.09
2022-08-07T11:57:12.584Z,97020.78
2022-08-07T12:00:10.897Z,97030.50
2022-08-07T12:02:57.971Z,97027.38
2022-08-07T12:05:49.186Z,97018.75
2022-08-07T12:08:29.510Z,97022.97
2022-08-07T12:11:20.548Z,97031.50
2022-08-07T12:13:55.226Z,97025.91
2022-08-07T12:16:42.193Z,97021.16
2022-08-07T12:19:21.577Z,97015.41
2022-08-07T12:22:39.197Z,97014.53
2022-08-07T12:26:00.343Z,97002.09
2022-08-07T12:28:08.945Z,97006.44
2022-08-07T12:30:46.969Z,97006.91
2022-08-07T12:33:30.728Z,96998.56
2022-08-07T12:36:15.094Z,96995.06
2022-08-07T12:38:57.068Z,96997.47
2022-08-07T12:41:29.086Z,96999.69
2022-08-07T12:44:17.380Z,96997.19
2022-08-07T12:47:01.637Z,97000.56
2022-08-07T12:49:51.579Z,97007.44
2022-08-07T12:52:36.497Z,96998.88
2022-08-07T12:55:17.708Z,97002.13
2022-08-07T12:58:01.050Z,96995.91
2022-08-07T13:00:50.054Z,96997.94
2022-08-07T13:04:02.765Z,96990.19
2022-08-07T13:08:11.647Z,96987.41
2022-08-07T13:10:39.418Z,96996.16
2022-08-07T13:13:47.595Z,96981.16
2022-08-07T13:16:17.256Z,96976.34
2022-08-07T13:18:54.754Z,96985.00
2022-08-07T13:21:37.279Z,96980.84
2022-08-07T13:24:25.577Z,96968.75
2022-08-07T13:27:02.790Z,96970.34
2022-08-07T13:29:42.562Z,96953.00
2022-08-07T13:32:31.333Z,96957.72
2022-08-07T13:35:09.221Z,96953.56
2022-08-07T13:37:47.312Z,96952.78
2022-08-07T13:40:36.606Z,96955.50
2022-08-07T13:43:15.163Z,96957.44
2022-08-07T13:46:12.156Z,96948.88
2022-08-07T13:48:38.447Z,96950.16
2022-08-07T13:51:28.030Z,96941.47
2022-08-07T13:54:01.968Z,96938.16
2022-08-07T13:56:35.755Z,96928.34
2022-08-07T13:59:13.815Z,96932.53
2022-08-07T14:01:51.072Z,96928.38
2022-08-07T14:04:35.330Z,96927.09
2022-08-07T14:07:09.410Z,96916.53
2022-08-07T14:10:02.722Z,96922.19
2022-08-07T14:12:36.042Z,96925.75
2022-08-07T14:15:18.819Z,96918.09
2022-08-07T14:18:15.711Z,96921.44
2022-08-07T14:20:48.865Z,96927.88
2022-08-07T14:23:31.322Z,96921.03
2022-08-07T14:26:29.981Z,96914.56
2022-08-07T14:30:04.765Z,96905.97
2022-08-07T14:31:56.491Z,96917.19
2022-08-07T14:34:30.734Z,96912.06
2022-08-07T14:37:02.044Z,96907.69
2022-08-07T14:40:16.725Z,96901.88
2022-08-07T14:42:32.663Z,96911.84
2022-08-07T14:45:21.780Z,96899.16
2022-08-07T14:47:58.533Z,96892.09
2022-08-07T14:50:44.266Z,96896.22
2022-08-07T14:56:07.053Z,96896.91
2022-08-07T14:58:44.111Z,96887.38
2022-08-07T15:04:05.901Z,96885.31
2022-08-07T15:06:36.506Z,96883.88
2022-08-07T15:10:00.085Z,96885.53
2022-08-07T15:12:02.665Z,96883.25
2022-08-07T15:14:56.003Z,96889.09
2022-08-07T15:17:32.508Z,96887.00
2022-08-07T15:23:20.164Z,96884.94
2022-08-07T15:25:54.704Z,96877.44
2022-08-07T15:28:34.389Z,96880.00
2022-08-07T15:31:07.479Z,96875.81
2022-08-07T15:33:42.663Z,96876.25
2022-08-07T15:36:12.783Z,96878.94
2022-08-07T15:42:46.438Z,96871.66
2022-08-07T15:44:24.283Z,96862.53
2022-08-07T15:46:58.736Z,96868.75
2022-08-07T15:50:05.326Z,96870.44
2022-08-07T15:52:30.231Z,96865.84
2022-08-07T15:55:02.404Z,96865.63
2022-08-07T15:57:47.771Z,96857.31
2022-08-07T16:00:22.762Z,96861.69
2022-08-07T16:03:02.388Z,96859.84
2022-08-07T16:05:32.144Z,96862.53
2022-08-07T16:08:31.123Z,96861.28
2022-08-07T16:11:00.936Z,96853.16
2022-08-07T16:14:03.278Z,96853.13
2022-08-07T16:16:49.966Z,96857.94
2022-08-07T16:20:04.717Z,96852.72
2022-08-07T16:22:54.915Z,96854.59
2022-08-07T16:25:52.341Z,96843.75
2022-08-07T16:30:08.641Z,96847.06
2022-08-07T16:31:51.708Z,96848.97
2022-08-07T16:34:33.946Z,96847.09
2022-08-07T16:38:06.342Z,96847.56
2022-08-07T16:41:22.371Z,96855.81
2022-08-07T16:44:46.350Z,96852.09
2022-08-07T16:47:52.938Z,96853.34
2022-08-07T16:50:39.348Z,96849.53
2022-08-07T16:54:01.712Z,96848.09
2022-08-07T16:56:37.677Z,96849.16
2022-08-07T16:59:17.699Z,96847.47
2022-08-07T17:02:03.192Z,96850.81
2022-08-07T17:04:58.516Z,96844.56
2022-08-07T17:07:55.826Z,96845.00
2022-08-07T17:10:33.235Z,96848.31
2022-08-07T17:13:25.388Z,96852.25
2022-08-07T17:16:16.368Z,96858.69
2022-08-07T17:18:50.326Z,96841.63
2022-08-07T17:21:23.082Z,96851.41
2022-08-07T17:24:23.764Z,96854.94
2022-08-07T17:27:01.393Z,96859.69
2022-08-07T17:30:14.763Z,96866.13
2022-08-07T17:32:52.055Z,96862.38
2022-08-07T17:35:51.468Z,96872.78
2022-08-07T17:38:33.023Z,96875.66
2022-08-07T17:41:12.509Z,96867.97
2022-08-07T17:44:05.868Z,96871.06
2022-08-07T17:46:41.773Z,96872.72
2022-08-07T17:49:23.150Z,96870.00
2022-08-07T17:52:00.530Z,96873.31
2022-08-07T17:54:53.569Z,96878.09
2022-08-07T17:57:56.061Z,96874.09
2022-08-07T18:00:33.293Z,96879.25
2022-08-07T18:03:18.298Z,96877.97
2022-08-07T18:06:01.633Z,96881.72
2022-08-07T18:08:33.832Z,96877.97
2022-08-07T18:12:07.255Z,96881.25
2022-08-07T18:14:10.167Z,96886.22
2022-08-07T18:16:57.874Z,96884.09
2022-08-07T18:21:12.557Z,96893.63
2022-08-07T18:22:36.400Z,96892.75
2022-08-07T18:25:24.322Z,96896.91
2022-08-07T18:28:34.542Z,96901.19
2022-08-07T18:31:07.555Z,96902.19
2022-08-07T18:34:35.826Z,96910.06
2022-08-07T18:37:15.100Z,96917.91
2022-08-07T18:40:42.943Z,96924.06
2022-08-07T18:43:15.112Z,96918.56
2022-08-07T18:46:24.340Z,96924.94
2022-08-07T18:50:19.206Z,96927.59
2022-08-07T18:52:25.415Z,96934.19
2022-08-07T18:54:49.807Z,96939.53
2022-08-07T18:57:31.462Z,96946.72
2022-08-07T19:00:33.441Z,96958.06
2022-08-07T19:03:12.034Z,96952.81
2022-08-07T19:06:04.142Z,96953.38
2022-08-07T19:08:46.551Z,96961.38
2022-08-07T19:11:36.285Z,96971.91
2022-08-07T19:14:20.030Z,96968.66
2022-08-07T19:17:04.585Z,96968.09
2022-08-07T19:19:48.745Z,96967.81
2022-08-07T19:22:30.273Z,96972.28
2022-08-07T19:25:05.739Z,96972.03
2022-08-07T19:30:56.702Z,96974.41
2022-08-07T19:31:02.942Z,96986.59
2022-08-07T19:33:33.229Z,96981.31
2022-08-07T19:36:02.931Z,96986.84
2022-08-07T19:38:36.193Z,96989.47
2022-08-07T19:41:45.000Z,96995.59
2022-08-07T19:44:21.116Z,96991.97
2022-08-07T19:46:57.811Z,96979.44
2022-08-07T19:49:57.417Z,96987.78
2022-08-07T19:52:22.494Z,96992.19
2022-08-07T19:54:56.600Z,96985.28
2022-08-07T19:58:04.684Z,96986.03
2022-08-07T20:00:28.944Z,96984.91
2022-08-07T20:03:02.834Z,96989.97
2022-08-07T20:06:00.085Z,96985.53
2022-08-07T20:08:24.666Z,96984.19
2022-08-07T20:11:01.853Z,96989.28
2022-08-07T20:13:43.182Z,96994.25
2022-08-07T20:16:15.739Z,96993.22
2022-08-07T20:19:05.432Z,96984.88
2022-08-07T20:21:46.655Z,96980.69
2022-08-07T20:24:20.377Z,96983.63
2022-08-07T20:26:54.908Z,96984.66
2022-08-07T20:29:49.465Z,96982.50
2022-08-07T20:32:23.201Z,96979.69
2022-08-07T20:34:57.268Z,96978.97
2022-08-07T20:37:32.206Z,96974.97
2022-08-07T20:40:31.452Z,96982.06
2022-08-07T20:42:57.969Z,96983.25
2022-08-07T20:45:33.809Z,96977.75
2022-08-07T20:48:28.588Z,96974.75
2022-08-07T20:50:58.429Z,96979.84
2022-08-07T20:54:02.048Z,96985.38
2022-08-07T20:56:16.673Z,96984.91
2022-08-07T20:59:00.009Z,96978.03
2022-08-07T21:01:45.412Z,96975.22
2022-08-07T21:04:23.624Z,96984.31
2022-08-07T21:06:56.949Z,96979.97
2022-08-07T21:09:51.646Z,96977.97
2022-08-07T21:12:25.976Z,96975.47
2022-08-07T21:15:03.938Z,96987.25
2022-08-07T21:18:01.877Z,96982.06
2022-08-07T21:20:30.321Z,96987.41
2022-08-07T21:23:07.693Z,96989.94
2022-08-07T21:25:56.575Z,96980.09
2022-08-07T21:28:48.960Z,96984.44
2022-08-07T21:31:49.987Z,96984.09
2022-08-07T21:34:26.653Z,96980.78
2022-08-07T21:37:03.883Z,96985.97
2022-08-07T21:39:47.691Z,96993.19
2022-08-07T21:42:49.304Z,97001.56
2022-08-07T21:46:09.455Z,96994.22
2022-08-07T21:48:28.706Z,96996.53
2022-08-07T21:51:19.388Z,96997.53
2022-08-07T21:53:53.516Z,97003.56
2022-08-07T21:56:37.793Z,97002.91
2022-08-07T21:59:14.157Z,97001.03
2022-08-07T22:02:10.971Z,96996.47
2022-08-07T22:04:52.650Z,96997.63
2022-08-07T22:07:31.641Z,96996.97
2022-08-07T22:10:18.256Z,97006.84
2022-08-07T22:12:53.667Z,97009.81
2022-08-07T22:16:39.950Z,97012.84
2022-08-07T22:18:25.286Z,97004.81
2022-08-07T22:20:59.647Z,97004.28
2022-08-07T22:23:40.502Z,96999.41
2022-08-07T22:26:18.511Z,97001.75
2022-08-07T22:28:54.297Z,96998.03
2022-08-07T22:31:56.060Z,96996.88
2022-08-07T22:34:28.589Z,97005.38
2022-08-07T22:37:19.172Z,97006.22
2022-08-07T22:39:54.019Z,97005.19
2022-08-07T22:42:25.891Z,96999.63
2022-08-07T22:44:59.976Z,97004.28
2022-08-07T22:47:52.454Z,97005.47
2022-08-07T22:50:37.009Z,97002.69
2022-08-07T22:54:05.048Z,97001.03
2022-08-07T22:56:24.152Z,97003.19
2022-08-07T22:59:28.387Z,97005.88
2022-08-07T23:02:08.697Z,97005.34
2022-08-07T23:04:58.632Z,97000.09
2022-08-07T23:07:53.620Z,96992.03
2022-08-07T23:10:42.184Z,96996.03
2022-08-07T23:13:48.665Z,96998.31
2022-08-07T23:16:54.581Z,97003.31
2022-08-07T23:19:58.534Z,97000.94
2022-08-07T23:22:40.399Z,97005.25
2022-08-07T23:25:20.822Z,97003.19
2022-08-07T23:28:22.209Z,96992.13
2022-08-07T23:31:42.624Z,97000.63
2022-08-07T23:34:34.013Z,96993.91
2022-08-07T23:37:22.646Z,96998.41
2022-08-07T23:40:07.549Z,96998.97
2022-08-07T23:42:53.393Z,96995.97
2022-08-07T23:46:01.635Z,96991.97
2022-08-07T23:48:43.922Z,96978.16
2022-08-07T23:53:00.113Z,96990.78
2022-08-07T23:54:36.177Z,96994.59
2022-08-07T23:57:18.570Z,96988.50
